Time;durP1;ratioP1;P1;durP2;ratioP2;P2;SDS_P1;SDS_P2;PMS_P1;PMS_P2;Temp;Humidity;BMP_temperature;BMP_pressure;BME280_temperature;BME280_humidity;BME280_pressure;Samples;Min_cycle;Max_cycle;Signal;HPM_P1;HPM_P2
2023/09/14 00:00:52;;;;;;;45.10;10.98;;;;;;;17.56;100.00;100610.25;5033825;28;20233;-78
2023/09/14 00:03:19;;;;;;;24.02;4.82;;;;;;;17.52;100.00;100598.72;5027663;28;20231;-78
2023/09/14 00:05:49;;;;;;;25.20;5.25;;;;;;;17.43;100.00;100592.66;5028222;28;20311;-79
2023/09/14 00:08:16;;;;;;;26.83;5.40;;;;;;;17.41;100.00;100599.81;5040183;28;20231;-78
2023/09/14 00:10:43;;;;;;;18.77;4.00;;;;;;;17.31;100.00;100606.22;5033873;28;20229;-78
2023/09/14 00:13:10;;;;;;;40.13;8.07;;;;;;;17.23;100.00;100600.97;5018427;28;20235;-79
2023/09/14 00:15:39;;;;;;;25.45;5.07;;;;;;;17.14;100.00;100610.03;5017940;28;20235;-79
2023/09/14 00:18:06;;;;;;;18.85;3.85;;;;;;;17.06;100.00;100613.72;5023402;28;20235;-79
2023/09/14 00:20:34;;;;;;;24.05;5.00;;;;;;;17.04;100.00;100612.84;5013813;28;20700;-78
2023/09/14 00:23:01;;;;;;;51.47;12.20;;;;;;;16.98;100.00;100611.16;5023970;28;20232;-78
2023/09/14 00:25:27;;;;;;;23.63;5.03;;;;;;;17.04;100.00;100621.75;5022812;28;20222;-78
2023/09/14 00:27:54;;;;;;;39.47;9.63;;;;;;;16.83;100.00;100612.22;5035991;28;20231;-79
2023/09/14 00:30:22;;;;;;;33.08;6.65;;;;;;;16.92;100.00;100624.59;5030683;28;20247;-78
2023/09/14 00:32:51;;;;;;;34.08;7.53;;;;;;;16.86;100.00;100622.88;5026006;28;20230;-78
2023/09/14 00:35:21;;;;;;;25.88;5.32;;;;;;;16.76;100.00;100612.31;5040904;28;20226;-78
2023/09/14 00:37:48;;;;;;;26.02;5.85;;;;;;;16.72;100.00;100622.16;5036578;28;20230;-78
2023/09/14 00:40:15;;;;;;;52.28;6.03;;;;;;;16.64;100.00;100624.00;5039673;28;20233;-79
2023/09/14 00:42:44;;;;;;;23.58;4.88;;;;;;;16.62;100.00;100632.03;5042408;28;20249;-78
2023/09/14 00:45:16;;;;;;;25.77;5.28;;;;;;;16.61;100.00;100646.31;5025243;28;20722;-78
2023/09/14 00:47:50;;;;;;;18.70;4.97;;;;;;;16.70;100.00;100661.34;5030200;28;20294;-78
2023/09/14 00:50:19;;;;;;;25.02;5.15;;;;;;;16.66;100.00;100656.06;5034425;28;20650;-78
2023/09/14 00:52:57;;;;;;;21.90;4.65;;;;;;;16.62;100.00;100671.22;5034237;28;20237;-79
2023/09/14 00:55:25;;;;;;;22.45;4.68;;;;;;;16.50;100.00;100682.03;5041004;28;20580;-79
2023/09/14 00:57:52;;;;;;;35.70;8.75;;;;;;;16.48;100.00;100692.72;5037272;28;20226;-78
2023/09/14 01:00:20;;;;;;;23.45;5.07;;;;;;;16.42;100.00;100716.81;5030510;28;20229;-78
2023/09/14 01:02:49;;;;;;;21.92;4.50;;;;;;;16.38;100.00;100716.88;5009309;28;20226;-79
2023/09/14 01:05:16;;;;;;;21.20;4.45;;;;;;;16.34;100.00;100726.69;5031874;28;20242;-78
2023/09/14 01:07:44;;;;;;;19.60;3.92;;;;;;;16.21;100.00;100715.25;5022166;28;20234;-79
2023/09/14 01:10:10;;;;;;;23.13;4.97;;;;;;;16.31;100.00;100734.72;5017781;28;20233;-78
2023/09/14 01:12:37;;;;;;;32.63;6.50;;;;;;;16.24;100.00;100727.69;5039101;28;20233;-78
2023/09/14 01:15:19;;;;;;;45.80;11.23;;;;;;;16.17;100.00;100728.63;5018929;28;20285;-78
2023/09/14 01:18:05;;;;;;;25.90;5.35;;;;;;;16.02;100.00;100726.09;5038992;28;20284;-78
2023/09/14 01:20:56;;;;;;;24.85;5.43;;;;;;;15.96;100.00;100738.59;5033563;28;20219;-78
2023/09/14 01:23:49;;;;;;;25.40;5.38;;;;;;;15.94;100.00;100750.19;5055626;28;20234;-78
2023/09/14 01:26:16;;;;;;;25.67;5.40;;;;;;;15.93;100.00;100751.06;5030190;28;20229;-78
2023/09/14 01:28:42;;;;;;;26.92;5.57;;;;;;;15.85;100.00;100751.13;5044127;28;20230;-78
2023/09/14 01:31:10;;;;;;;30.65;6.70;;;;;;;15.77;100.00;100758.31;5034899;28;20236;-78
2023/09/14 01:33:37;;;;;;;22.42;4.82;;;;;;;15.87;100.00;100775.13;5034748;28;20234;-78
2023/09/14 01:36:25;;;;;;;49.35;11.55;;;;;;;15.66;100.00;100769.03;5025241;28;20261;-78
2023/09/14 01:38:53;;;;;;;45.47;10.68;;;;;;;15.68;100.00;100766.38;5034292;28;20230;-77
2023/09/14 01:41:21;;;;;;;30.05;6.13;;;;;;;15.65;100.00;100774.38;5036161;28;20279;-78
2023/09/14 01:43:50;;;;;;;30.73;6.72;;;;;;;15.52;100.00;100767.28;5027521;28;20227;-77
2023/09/14 01:46:17;;;;;;;34.50;7.07;;;;;;;15.59;100.00;100775.28;5029032;28;20704;-77
2023/09/14 01:48:44;;;;;;;28.67;5.97;;;;;;;15.51;100.00;100790.41;5019457;28;20238;-78
2023/09/14 01:51:11;;;;;;;27.08;5.75;;;;;;;15.62;100.00;100809.94;5034066;28;20759;-78
2023/09/14 01:53:38;;;;;;;39.53;5.18;;;;;;;15.62;100.00;100809.94;5026833;28;20719;-77
2023/09/14 01:56:05;;;;;;;37.42;8.27;;;;;;;15.44;100.00;100798.44;5005895;28;20236;-78
2023/09/14 01:58:32;;;;;;;26.35;5.47;;;;;;;15.36;100.00;100804.69;5033559;28;20233;-78
2023/09/14 02:00:58;;;;;;;39.55;9.80;;;;;;;15.35;100.00;100802.91;5018231;28;20259;-78
2023/09/14 02:03:26;;;;;;;25.85;5.30;;;;;;;15.26;100.00;100808.28;5015463;28;20694;-79
2023/09/14 02:06:02;;;;;;;42.38;9.68;;;;;;;15.19;100.00;100811.88;5019786;28;20227;-79
2023/09/14 02:08:32;;;;;;;27.05;5.55;;;;;;;15.15;100.00;100818.09;5031532;28;20237;-78
2023/09/14 02:10:58;;;;;;;43.00;11.00;;;;;;;15.11;100.00;100824.31;5049765;28;20230;-78
2023/09/14 02:13:27;;;;;;;25.05;5.32;;;;;;;15.17;100.00;100844.75;5040516;28;20246;-78
2023/09/14 02:15:54;;;;;;;48.75;11.45;;;;;;;15.23;100.00;100845.59;5041740;28;20237;-78
2023/09/14 02:18:21;;;;;;;27.27;5.43;;;;;;;15.10;100.00;100835.00;5046397;28;20232;-78
2023/09/14 02:20:48;;;;;;;29.67;6.18;;;;;;;14.95;100.00;100823.50;5035388;28;20245;-78
2023/09/14 02:23:17;;;;;;;29.88;6.30;;;;;;;14.98;100.00;100839.47;5031832;28;20242;-78
2023/09/14 02:25:44;;;;;;;26.02;5.18;;;;;;;14.96;100.00;100849.22;5041741;28;21005;-78
2023/09/14 02:28:13;;;;;;;27.13;5.60;;;;;;;14.90;100.00;100854.56;5014288;28;20221;-79
2023/09/14 02:30:41;;;;;;;27.00;5.53;;;;;;;14.92;100.00;100855.47;5034745;28;20231;-78
2023/09/14 02:33:08;;;;;;;24.30;4.95;;;;;;;14.89;100.00;100860.78;5027730;28;20237;-78
2023/09/14 02:35:36;;;;;;;16.50;3.67;;;;;;;14.84;100.00;100865.22;5022707;28;20227;-77
2023/09/14 02:38:03;;;;;;;52.90;12.90;;;;;;;14.89;100.00;100871.44;5022673;28;20222;-77
2023/09/14 02:40:30;;;;;;;21.13;4.25;;;;;;;14.69;100.00;100854.59;5018268;28;20223;-77
2023/09/14 02:42:57;;;;;;;40.20;9.85;;;;;;;14.76;100.00;100861.69;5019046;28;20764;-77
2023/09/14 02:45:24;;;;;;;29.30;6.03;;;;;;;14.77;100.00;100873.22;5031589;28;20313;-77
2023/09/14 02:47:51;;;;;;;32.63;7.50;;;;;;;14.84;100.00;100885.66;5036011;28;20230;-78
2023/09/14 02:50:18;;;;;;;30.50;6.15;;;;;;;14.69;100.00;100881.22;5017448;28;20657;-77
2023/09/14 02:52:45;;;;;;;19.90;4.10;;;;;;;14.68;100.00;100877.69;5038573;28;20237;-78
2023/09/14 02:55:12;;;;;;;27.15;5.30;;;;;;;14.75;100.00;100886.53;5030876;28;20226;-78
2023/09/14 02:57:39;;;;;;;19.45;3.88;;;;;;;14.63;100.00;100882.13;5022588;28;20563;-78
2023/09/14 03:00:08;;;;;;;26.27;5.40;;;;;;;14.58;100.00;100896.31;5030443;28;20243;-78
2023/09/14 03:02:34;;;;;;;42.10;8.43;;;;;;;14.62;100.00;100898.97;5028460;28;20239;-77
2023/09/14 03:05:01;;;;;;;73.20;16.67;;;;;;;14.41;100.00;100891.84;5009352;28;20246;-78
2023/09/14 03:07:28;;;;;;;22.92;4.75;;;;;;;14.45;100.00;100897.19;5033066;28;20223;-77
2023/09/14 03:09:55;;;;;;;34.90;8.10;;;;;;;14.44;100.00;100898.97;5035563;28;20233;-78
2023/09/14 03:12:22;;;;;;;29.48;6.10;;;;;;;14.41;100.00;100915.78;5025196;28;20303;-78
2023/09/14 03:14:48;;;;;;;36.10;8.02;;;;;;;14.33;100.00;100920.22;5031957;28;20225;-78
2023/09/14 03:17:15;;;;;;;32.65;6.60;;;;;;;14.29;100.00;100926.38;5018967;28;20322;-78
2023/09/14 03:19:42;;;;;;;27.00;5.55;;;;;;;14.22;100.00;100934.34;5017451;28;20233;-78
2023/09/14 03:22:10;;;;;;;22.65;4.70;;;;;;;14.14;100.00;100937.00;5031279;28;20230;-78
2023/09/14 03:24:37;;;;;;;23.80;4.85;;;;;;;14.14;100.00;100952.06;5044500;28;20313;-78
2023/09/14 03:27:04;;;;;;;48.85;11.63;;;;;;;14.29;100.00;100966.28;5025759;28;20234;-77
2023/09/14 03:29:31;;;;;;;23.25;4.82;;;;;;;14.22;100.00;100956.53;5041151;28;20317;-78
2023/09/14 03:31:58;;;;;;;62.85;14.27;;;;;;;14.10;100.00;100964.47;5000107;28;20624;-78
2023/09/14 03:34:24;;;;;;;26.48;5.50;;;;;;;14.16;100.00;100969.81;5016629;28;20277;-77
2023/09/14 03:36:51;;;;;;;50.58;12.43;;;;;;;14.16;100.00;100972.47;5016958;28;20766;-78
2023/09/14 03:39:18;;;;;;;21.45;4.45;;;;;;;14.09;100.00;100970.66;5018461;28;20234;-78
2023/09/14 03:41:47;;;;;;;28.27;5.60;;;;;;;14.18;100.00;100978.69;5013922;28;20263;-78
2023/09/14 03:44:14;;;;;;;26.15;5.65;;;;;;;14.02;100.00;100964.44;5014927;28;20227;-79
2023/09/14 03:46:41;;;;;;;21.38;4.47;;;;;;;14.09;100.00;100973.31;5027946;28;20226;-79
2023/09/14 03:49:08;;;;;;;27.33;5.57;;;;;;;14.06;100.00;100981.28;5015260;28;20245;-79
2023/09/14 03:51:35;;;;;;;21.75;4.45;;;;;;;14.14;100.00;100992.84;5043822;28;20226;-78
2023/09/14 03:54:02;;;;;;;45.28;10.45;;;;;;;13.98;100.00;100977.72;5020723;28;20225;-79
2023/09/14 03:56:29;;;;;;;25.45;5.20;;;;;;;13.92;100.00;100980.34;5045036;28;20218;-78
2023/09/14 03:58:56;;;;;;;44.85;10.85;;;;;;;13.89;100.00;100981.22;5035039;28;20586;-78
2023/09/14 04:01:23;;;;;;;22.77;4.57;;;;;;;13.90;100.00;100996.31;5016132;28;20222;-78
2023/09/14 04:03:50;;;;;;;46.45;10.95;;;;;;;13.86;100.00;100991.84;5023274;28;20241;-79
2023/09/14 04:06:21;;;;;;;35.92;8.05;;;;;;;13.86;100.00;101001.59;5035533;28;20369;-79
2023/09/14 04:08:48;;;;;;;35.58;6.90;;;;;;;13.85;100.00;101002.47;5040965;28;20221;-79
2023/09/14 04:11:15;;;;;;;28.20;5.85;;;;;;;13.89;100.00;101005.16;5040292;28;20229;-78
2023/09/14 04:13:41;;;;;;;16.63;3.67;;;;;;;13.81;100.00;101004.25;5031384;28;20226;-80
2023/09/14 04:16:08;;;;;;;31.48;6.45;;;;;;;13.79;100.00;100998.03;5008840;28;20234;-79
2023/09/14 04:18:37;;;;;;;24.95;3.78;;;;;;;13.81;100.00;101006.91;5016526;28;20235;-78
2023/09/14 04:21:05;;;;;;;58.28;13.10;;;;;;;13.74;100.00;101003.31;5004598;28;20227;-79
2023/09/14 04:23:32;;;;;;;22.95;5.07;;;;;;;13.68;100.00;101007.72;5035488;28;20229;-80
2023/09/14 04:26:00;;;;;;;47.63;11.02;;;;;;;13.72;100.00;101013.06;5030035;28;20234;-80
2023/09/14 04:28:27;;;;;;;20.30;4.38;;;;;;;13.60;100.00;101013.00;5035174;28;20234;-79
2023/09/14 04:30:57;;;;;;;55.30;12.48;;;;;;;13.49;100.00;101005.84;5011244;28;20228;-80
2023/09/14 04:33:25;;;;;;;27.00;5.95;;;;;;;13.56;100.00;101012.97;5030789;28;20314;-79
2023/09/14 04:36:01;;;;;;;43.42;9.48;;;;;;;13.70;100.00;101032.53;5026813;28;20244;-80
2023/09/14 04:38:28;;;;;;;20.25;4.45;;;;;;;13.63;100.00;101033.38;5016349;28;20238;-80
2023/09/14 04:40:55;;;;;;;35.53;8.13;;;;;;;13.57;100.00;101036.88;5015787;28;20230;-79
2023/09/14 04:43:22;;;;;;;26.02;5.28;;;;;;;13.66;100.00;101044.91;5035929;28;20230;-81
2023/09/14 04:45:48;;;;;;;28.90;6.57;;;;;;;13.48;100.00;101031.50;5034394;28;20230;-79
2023/09/14 04:48:15;;;;;;;26.50;5.28;;;;;;;13.50;100.00;101036.84;5024876;28;20235;-80
2023/09/14 04:50:43;;;;;;;20.35;4.25;;;;;;;13.45;100.00;101040.34;5017992;28;20237;-80
2023/09/14 04:53:09;;;;;;;29.63;5.95;;;;;;;13.46;100.00;101051.88;5010611;28;20271;-80
2023/09/14 04:55:36;;;;;;;21.30;4.20;;;;;;;13.29;100.00;101038.47;5030921;28;20237;-80
2023/09/14 04:58:03;;;;;;;46.65;11.07;;;;;;;13.31;100.00;101051.75;5028340;28;20285;-80
2023/09/14 05:00:30;;;;;;;27.30;5.57;;;;;;;13.29;100.00;101048.19;5026968;28;20227;-80
2023/09/14 05:02:57;;;;;;;80.57;15.60;;;;;;;13.31;100.00;101050.00;5018735;28;20226;-80
2023/09/14 05:05:24;;;;;;;24.73;5.03;;;;;;;13.30;100.00;101060.59;5032318;28;20233;-80
2023/09/14 05:07:51;;;;;;;67.72;13.48;;;;;;;13.33;100.00;101063.28;5028350;28;20226;-80
2023/09/14 05:10:18;;;;;;;21.38;4.88;;;;;;;13.34;100.00;101073.03;5025566;28;20230;-80
2023/09/14 05:12:44;;;;;;;22.17;4.40;;;;;;;13.30;100.00;101063.25;5026770;28;20289;-80
2023/09/14 05:15:11;;;;;;;19.20;3.97;;;;;;;13.33;100.00;101073.91;5027029;28;20671;-80
2023/09/14 05:17:38;;;;;;;15.85;4.05;;;;;;;13.25;100.00;101076.50;5051144;28;20234;-80
2023/09/14 05:20:08;;;;;;;26.10;4.75;;;;;;;13.25;100.00;101079.16;5029834;28;20242;-80
2023/09/14 05:22:36;;;;;;;26.77;5.45;;;;;;;13.28;100.00;101081.84;5013951;28;20235;-80
2023/09/14 05:25:03;;;;;;;46.72;10.20;;;;;;;13.31;100.00;101084.53;5033480;28;20241;-80
2023/09/14 05:27:37;;;;;;;16.38;3.42;;;;;;;13.26;100.00;101096.00;5047936;28;20233;-80
2023/09/14 05:30:09;;;;;;;35.97;9.00;;;;;;;13.33;100.00;101090.75;5023113;28;20222;-80
2023/09/14 05:32:37;;;;;;;28.77;5.88;;;;;;;13.31;100.00;101103.13;5028349;28;20227;-80
2023/09/14 05:35:06;;;;;;;41.03;9.65;;;;;;;13.34;100.00;101110.22;5041695;28;20238;-80
2023/09/14 05:37:33;;;;;;;17.50;3.65;;;;;;;13.33;100.00;101113.75;5037018;28;20226;-80
2023/09/14 05:40:00;;;;;;;25.67;6.28;;;;;;;13.40;100.00;101115.59;5036457;28;20238;-81
2023/09/14 05:42:27;;;;;;;26.60;6.18;;;;;;;13.21;100.00;101106.56;5041312;28;20229;-80
2023/09/14 05:44:54;;;;;;;42.58;9.70;;;;;;;13.29;100.00;101109.28;5042704;28;20234;-80
2023/09/14 05:47:21;;;;;;;23.73;5.30;;;;;;;13.28;100.00;101121.69;5048954;28;20236;-80
2023/09/14 05:49:49;;;;;;;22.13;5.25;;;;;;;13.34;100.00;101124.41;5027293;28;20227;-80
2023/09/14 05:52:16;;;;;;;22.85;5.00;;;;;;;13.44;100.00;101133.34;5027633;28;20701;-80
2023/09/14 05:54:43;;;;;;;21.80;4.50;;;;;;;13.38;100.00;101135.94;5032952;28;20237;-81
2023/09/14 05:57:09;;;;;;;21.90;4.55;;;;;;;13.43;100.00;101135.09;5034101;28;20230;-80
2023/09/14 05:59:36;;;;;;;25.20;5.10;;;;;;;13.52;100.00;101150.22;5044191;28;20231;-80
2023/09/14 06:02:03;;;;;;;37.60;9.43;;;;;;;13.51;100.00;101143.13;5024052;28;20230;-80
2023/09/14 06:04:30;;;;;;;21.52;4.50;;;;;;;13.45;100.00;101141.31;5029387;28;20231;-80
2023/09/14 06:06:58;;;;;;;44.80;10.07;;;;;;;13.65;100.00;101154.78;5023210;28;20717;-80
2023/09/14 06:09:26;;;;;;;25.90;5.40;;;;;;;13.68;100.00;101162.78;5032161;28;20226;-80
2023/09/14 06:11:53;;;;;;;44.30;10.73;;;;;;;13.71;100.00;101161.91;5016881;28;20244;-80
2023/09/14 06:14:20;;;;;;;20.67;4.28;;;;;;;13.77;100.00;101165.50;5049429;28;20229;-80
2023/09/14 06:16:47;;;;;;;25.77;5.15;;;;;;;13.79;100.00;101168.16;5031427;28;20237;-80
2023/09/14 06:19:14;;;;;;;22.02;4.80;;;;;;;13.86;100.00;101177.97;5028354;28;20284;-79
2023/09/14 06:21:40;;;;;;;21.02;4.35;;;;;;;13.89;100.00;101172.66;5027320;28;20228;-79
2023/09/14 06:24:08;;;;;;;20.13;4.22;;;;;;;13.98;100.00;101171.84;5022219;28;20690;-81
2023/09/14 06:26:35;;;;;;;21.52;4.80;;;;;;;14.03;100.00;101175.44;5023136;28;20237;-80
2023/09/14 06:29:02;;;;;;;75.97;14.98;;;;;;;14.07;100.00;101167.47;5019151;28;20231;-80
2023/09/14 06:31:29;;;;;;;18.63;3.90;;;;;;;14.16;100.00;101179.94;5043920;28;20226;-79
2023/09/14 06:33:56;;;;;;;51.55;11.55;;;;;;;14.22;100.00;101179.97;5038588;28;20321;-80
2023/09/14 06:36:23;;;;;;;22.90;4.75;;;;;;;14.30;100.00;101172.97;5045572;28;20272;-79
2023/09/14 06:38:49;;;;;;;31.33;7.45;;;;;;;14.33;100.00;101167.66;5038568;28;20230;-80
2023/09/14 06:41:16;;;;;;;26.23;5.50;;;;;;;14.38;100.00;101168.56;5050093;28;20249;-79
2023/09/14 06:43:46;;;;;;;25.20;6.00;;;;;;;14.38;100.00;101163.25;5047102;28;20237;-80
2023/09/14 06:46:13;;;;;;;20.67;4.65;;;;;;;14.43;100.00;101165.09;5041565;28;20226;-80
2023/09/14 06:48:40;;;;;;;22.52;4.65;;;;;;;14.53;100.00;101158.91;5046027;28;20230;-79
2023/09/14 06:51:08;;;;;;;23.75;4.97;;;;;;;14.58;100.00;101152.72;5023814;28;20321;-80
2023/09/14 06:53:35;;;;;;;20.15;4.15;;;;;;;14.61;100.00;101147.41;5048609;28;20257;-80
2023/09/14 06:56:09;;;;;;;46.63;10.65;;;;;;;14.79;100.00;101149.25;5024222;28;20285;-80
2023/09/14 06:58:35;;;;;;;23.67;5.05;;;;;;;14.79;100.00;101145.72;5026379;28;20318;-80
2023/09/14 07:01:06;;;;;;;48.67;11.40;;;;;;;14.77;100.00;101132.38;5037270;28;20226;-81
2023/09/14 07:03:34;;;;;;;24.25;5.20;;;;;;;14.81;100.00;101133.28;5038371;28;20227;-80
2023/09/14 07:06:05;;;;;;;35.40;8.35;;;;;;;14.97;100.00;101129.78;5029106;28;20247;-81
2023/09/14 07:08:31;;;;;;;22.63;4.78;;;;;;;14.96;100.00;101128.88;5038600;28;20237;-80
2023/09/14 07:10:58;;;;;;;45.97;10.27;;;;;;;14.97;100.00;101129.78;5020036;28;20243;-80
2023/09/14 07:13:25;;;;;;;22.58;4.70;;;;;;;15.03;100.00;101122.69;5023887;28;20239;-80
2023/09/14 07:15:52;;;;;;;42.22;9.82;;;;;;;15.15;100.00;101120.94;5019057;28;20227;-80
2023/09/14 07:18:31;;;;;;;22.27;4.55;;;;;;;15.17;100.00;101112.03;5025427;28;20322;-80
2023/09/14 07:21:01;;;;;;;52.50;11.95;;;;;;;15.20;100.00;101122.72;5026497;28;20238;-80
2023/09/14 07:23:29;;;;;;;20.13;4.07;;;;;;;15.37;100.00;101115.63;5028011;28;20332;-80
2023/09/14 07:25:56;;;;;;;54.90;13.23;;;;;;;15.43;100.00;101130.72;5022189;28;20231;-80
2023/09/14 07:28:22;;;;;;;23.27;4.80;;;;;;;15.35;100.00;101108.50;5034388;28;20242;-80
2023/09/14 07:30:50;;;;;;;37.30;8.82;;;;;;;15.39;100.00;101110.28;5025670;28;20714;-80
2023/09/14 07:33:18;;;;;;;29.40;6.43;;;;;;;15.46;100.00;101104.06;5038836;28;20611;-80
2023/09/14 07:35:47;;;;;;;16.38;3.92;;;;;;;15.56;100.00;101110.28;5042567;28;20246;-80
2023/09/14 07:38:14;;;;;;;23.70;4.97;;;;;;;15.60;100.00;101105.00;5039425;28;20227;-80
2023/09/14 07:40:41;;;;;;;25.58;5.85;;;;;;;15.70;100.00;101099.66;5050169;28;20242;-80
2023/09/14 07:43:09;;;;;;;23.27;4.95;;;;;;;15.74;100.00;101093.44;5034695;28;20237;-81
2023/09/14 07:45:37;;;;;;;21.05;4.57;;;;;;;15.79;100.00;101091.66;5043930;28;20273;-80
2023/09/14 07:48:06;;;;;;;35.75;8.50;;;;;;;15.87;100.00;101087.19;5023029;28;20245;-81
2023/09/14 07:50:39;;;;;;;21.27;4.68;;;;;;;16.03;100.00;101093.38;5027387;28;20222;-80
2023/09/14 07:53:07;;;;;;;22.48;5.10;;;;;;;16.10;100.00;101092.47;5050048;28;20664;-80
2023/09/14 07:55:34;;;;;;;26.70;5.82;;;;;;;16.08;100.00;101086.25;5050021;28;20709;-80
2023/09/14 07:58:01;;;;;;;44.78;10.20;;;;;;;16.08;100.00;101080.91;5044250;28;20662;-80
2023/09/14 08:00:28;;;;;;;23.10;5.05;;;;;;;16.26;100.00;101092.41;5047533;28;20238;-80
2023/09/14 08:02:55;;;;;;;47.75;11.45;;;;;;;16.32;100.00;101088.81;5036951;28;20258;-80
2023/09/14 08:05:22;;;;;;;28.02;5.72;;;;;;;16.12;100.00;101050.66;5051338;28;20328;-80
2023/09/14 08:07:49;;;;;;;30.40;6.47;;;;;;;16.40;100.00;101072.78;5047858;28;20241;-80
2023/09/14 08:10:15;;;;;;;26.00;5.25;;;;;;;16.52;100.00;101078.94;5046675;28;20226;-80
2023/09/14 08:12:42;;;;;;;44.83;8.85;;;;;;;16.51;100.00;101068.25;5036917;28;20245;-80
2023/09/14 08:15:09;;;;;;;20.70;4.60;;;;;;;16.56;100.00;101069.13;5023186;28;20301;-81
2023/09/14 08:17:36;;;;;;;18.02;6.10;;;;;;;16.55;100.00;101067.34;5035521;28;20257;-80
2023/09/14 08:20:04;;;;;;;38.60;9.52;;;;;;;16.68;100.00;101070.88;5028776;28;20237;-80
2023/09/14 08:22:31;;;;;;;37.30;9.02;;;;;;;16.79;100.00;101069.91;5028567;28;20245;-80
2023/09/14 08:25:00;;;;;;;47.38;12.20;;;;;;;16.72;100.00;101030.78;5027593;28;20235;-80
2023/09/14 08:27:30;;;;;;;25.67;5.50;;;;;;;16.81;100.00;101013.81;5038359;28;20258;-80
2023/09/14 08:29:57;;;;;;;41.00;9.35;;;;;;;17.02;100.00;101019.03;5023399;28;20238;-80
2023/09/14 08:32:24;;;;;;;42.25;8.77;;;;;;;17.17;100.00;101020.69;5037868;28;20230;-80
2023/09/14 08:34:56;;;;;;;49.45;11.60;;;;;;;17.27;100.00;101011.69;5027472;28;20235;-80
2023/09/14 08:37:23;;;;;;;32.75;6.88;;;;;;;17.47;100.00;101019.50;5041419;28;20238;-80
2023/09/14 08:39:51;;;;;;;38.38;8.52;;;;;;;17.29;100.00;100980.47;5035393;28;20237;-78
2023/09/14 08:42:19;;;;;;;25.15;5.22;;;;;;;17.48;100.00;100995.41;5025603;28;20231;-78
2023/09/14 08:44:47;;;;;;;20.90;4.40;;;;;;;17.61;100.00;100996.19;5013007;28;20238;-81
2023/09/14 08:47:15;;;;;;;30.30;6.43;;;;;;;17.70;100.00;100993.44;5021214;28;20222;-78
2023/09/14 08:49:43;;;;;;;21.55;4.85;;;;;;;17.77;100.00;100981.75;5028833;28;20234;-78
2023/09/14 08:52:10;;;;;;;21.70;4.80;;;;;;;17.90;100.00;100974.47;5033489;28;20230;-79
2023/09/14 08:54:37;;;;;;;24.92;5.10;;;;;;;18.00;100.00;100967.22;5039701;28;20253;-78
2023/09/14 08:57:05;;;;;;;43.03;10.43;;;;;;;17.95;100.00;100927.13;5023741;28;20317;-79
2023/09/14 08:59:34;;;;;;;21.50;4.30;;;;;;;18.14;100.00;100933.13;5019116;28;20234;-79
2023/09/14 09:02:02;;;;;;;31.75;7.63;;;;;;;18.02;100.00;100898.50;5032640;28;20620;-78
2023/09/14 09:04:29;;;;;;;24.92;5.13;;;;;;;18.16;100.00;100897.38;5038004;28;20249;-79
2023/09/14 09:06:56;;;;;;;34.17;9.25;;;;;;;18.27;100.00;100877.63;5029232;28;20231;-78
2023/09/14 09:09:24;;;;;;;26.20;5.45;;;;;;;18.49;100.00;100877.25;5038572;28;20222;-78
2023/09/14 09:11:53;;;;;;;37.42;8.95;;;;;;;18.61;100.00;100876.22;5029878;28;20238;-78
2023/09/14 09:14:23;;;;;;;25.33;5.30;;;;;;;18.68;100.00;100863.59;5023010;28;20244;-79
2023/09/14 09:16:50;;;;;;;29.35;6.78;;;;;;;18.77;100.00;100847.34;5030018;28;20269;-78
2023/09/14 09:19:17;;;;;;;24.15;5.00;;;;;;;19.03;100.00;100865.63;5023226;28;20254;-78
2023/09/14 09:21:46;;;;;;;22.33;4.57;;;;;;;19.07;100.00;100838.75;5032191;28;20234;-79
2023/09/14 09:24:25;;;;;;;26.33;5.35;;;;;;;19.06;100.00;100791.41;5045189;28;20234;-78
2023/09/14 09:26:52;;;;;;;36.72;8.57;;;;;;;19.27;100.00;100767.75;5040231;28;20269;-78
2023/09/14 09:29:19;;;;;;;25.48;5.32;;;;;;;19.69;100.00;100791.00;5043315;28;20257;-78
2023/09/14 09:31:50;;;;;;;22.38;4.68;;;;;;;19.88;100.00;100775.34;5043887;28;20237;-81
2023/09/14 09:34:21;;;;;;;22.90;4.80;;;;;;;19.38;100.00;100635.19;5047091;28;20241;-79
2023/09/14 09:36:50;;;;;;;22.98;4.70;;;;;;;19.75;100.00;100669.22;5042029;28;20313;-79
2023/09/14 09:39:17;;;;;;;24.85;5.10;;;;;;;19.85;100.00;100653.78;5049528;28;20272;-81
2023/09/14 09:41:45;;;;;;;21.17;4.35;;;;;;;20.09;100.00;100655.81;5049090;28;20704;-82
2023/09/14 09:44:14;;;;;;;17.38;3.55;;;;;;;19.69;100.00;100549.50;5040217;28;20292;-81
2023/09/14 09:46:42;;;;;;;16.83;3.53;;;;;;;19.76;100.00;100526.97;5039409;28;20241;-79
2023/09/14 09:49:20;;;;;;;21.05;4.88;;;;;;;19.68;100.00;100464.59;5046409;28;20230;-80
2023/09/14 09:51:50;;;;;;;23.13;4.63;;;;;;;20.37;100.00;100556.56;5022621;28;20288;-81
2023/09/14 09:54:24;;;;;;;27.70;5.78;;;;;;;20.36;100.00;100503.78;5040444;28;20246;-79
2023/09/14 09:56:51;;;;;;;39.88;9.18;;;;;;;20.37;100.00;100473.31;5023959;28;20636;-78
2023/09/14 09:59:18;;;;;;;29.98;6.07;;;;;;;20.49;100.00;100472.97;5055116;28;20236;-79
2023/09/14 10:01:48;;;;;;;25.23;5.10;;;;;;;20.31;100.00;100419.78;5033649;28;20664;-79
2023/09/14 10:04:17;;;;;;;27.67;5.78;;;;;;;20.40;100.00;100393.53;5043956;28;20246;-79
2023/09/14 10:06:52;;;;;;;27.02;5.75;;;;;;;20.88;100.00;100437.69;5047307;28;20242;-79
2023/09/14 10:09:19;;;;;;;25.02;5.15;;;;;;;20.99;100.00;100388.03;5017152;28;20230;-79
2023/09/14 10:11:47;;;;;;;25.42;5.13;;;;;;;21.09;100.00;100340.19;5029706;28;20237;-79
2023/09/14 10:14:16;;;;;;;20.13;4.10;;;;;;;20.84;100.00;100237.16;5027975;28;20237;-81
2023/09/14 10:16:44;;;;;;;17.00;3.58;;;;;;;21.10;100.00;100255.88;5049186;28;20237;-79
2023/09/14 10:19:11;;;;;;;21.17;4.43;;;;;;;21.63;100.00;100266.44;5038398;28;20230;-79
2023/09/14 10:21:41;;;;;;;19.20;3.97;;;;;;;21.15;100.00;100119.44;5034973;28;20242;-79
2023/09/14 10:24:09;;;;;;;17.15;3.47;;;;;;;21.46;100.00;100153.22;5040744;28;20316;-79
2023/09/14 10:26:37;;;;;;;19.95;4.30;;;;;;;21.29;100.00;100103.69;5022940;28;20659;-79
2023/09/14 10:29:07;;;;;;;38.20;8.93;;;;;;;20.75;100.00;100002.72;5049726;28;20679;-79
2023/09/14 10:31:35;;;;;;;18.45;3.75;;;;;;;21.31;100.00;100120.63;5048944;28;20679;-80
2023/09/14 10:34:06;;;;;;;46.53;11.23;;;;;;;21.57;100.00;100100.75;5049847;28;20258;-80
2023/09/14 10:36:34;;;;;;;26.15;5.43;;;;;;;21.98;100.00;100134.00;5036114;28;20305;-82
2023/09/14 10:39:05;;;;;;;44.30;9.88;;;;;;;22.18;100.00;100127.81;5035110;28;20229;-79
2023/09/14 10:41:32;;;;;;;15.35;3.55;;;;;;;21.91;100.00;100048.16;5054613;28;20341;-79
2023/09/14 10:43:59;;;;;;;45.03;10.68;;;;;;;22.59;100.00;100154.75;5041347;28;20646;-80
2023/09/14 10:46:28;;;;;;;28.08;5.85;;;;;;;22.39;100.00;100061.34;5048221;28;20611;-79
2023/09/14 10:48:56;;;;;;;39.35;8.90;;;;;;;22.60;100.00;100049.56;5042302;28;20251;-79
2023/09/14 10:51:23;;;;;;;19.20;4.05;;;;;;;21.91;100.00;99927.91;5043108;28;20240;-80
2023/09/14 10:53:51;;;;;;;32.17;7.50;;;;;;;22.50;100.00;100039.28;5021807;28;20238;-80
2023/09/14 10:56:19;;;;;;;29.73;6.15;;;;;;;22.26;100.00;99941.63;5038816;28;20229;-79
2023/09/14 10:58:50;;;;;;;24.60;5.10;;;;;;;21.69;100.00;99822.16;5027344;28;20709;-80
2023/09/14 11:01:24;;;;;;;22.20;4.60;;;;;;;21.27;100.00;99777.44;5021074;28;20237;-79
2023/09/14 11:04:13;;;;;;;42.17;9.75;;;;;;;21.72;100.00;99892.00;5034534;28;20240;-80
2023/09/14 11:06:44;;;;;;;20.05;4.13;;;;;;;21.72;100.00;99886.59;5039402;28;20321;-80
2023/09/14 11:09:15;;;;;;;21.90;4.63;;;;;;;22.30;100.00;99954.00;5035135;28;20660;-80
2023/09/14 11:11:44;;;;;;;19.98;4.47;;;;;;;22.46;100.00;99957.72;5045083;28;20226;-80
2023/09/14 11:14:17;;;;;;;18.52;3.90;;;;;;;22.14;100.00;99843.41;5030983;28;20241;-80